Springlake, TX (79082)

10:35 PM CST on February 22, 2018 (GMT -0600)
White Water Tank | | Change Station
Active Advisory: Fire Weather Watch

Elev 3622 ft 34.06 °N, 102.30 °W | Updated 9 seconds ago

Partly Cloudy
Partly Cloudy
36.3 °F
Feels Like 36 °F
N
1.8
Wind Variable Wind from SSW
Gusts 2.5 mph

Today
High -- | Low -- °F
--% Chance of Precip.
Yesterday
High -- | Low -- °F
Precip. -- in
Pressure 30.12 in
Visibility 10.0 miles
Clouds Clear
Windchill 36 °F
Dew Point 30 °F
Humidity 79%
Rainfall 0.00 in
Snow Depth Not available.
7:26 AM 6:39 PM
Waxing Crescent, 48% visible
METAR KPVW 230415Z AUTO 22003KT 10SM CLR 01/M01 A3012 RMK AO2 T00051009
Pressure 30.12 in
Visibility 10.0 miles
Clouds Clear
Windchill 36 °F
Dew Point 30 °F
Humidity 79%
Rainfall 0.00 in
Snow Depth Not available.
7:26 AM 6:39 PM
Waxing Crescent, 48% visible
METAR KPVW 230415Z AUTO 22003KT 10SM CLR 01/M01 A3012 RMK AO2 T00051009

Get Your Daily Forecast Email!

Thanks for signing up!

Be on the lookout for a verification email in your inbox.

You'll start receiving severe weather alerts in your inbox..

×

10-Day Weather Forecast

Almanac

Astronomy

Feb. 22, 2018 Rise Set
Actual Time
Civil Twilight
Nautical Twilight
Astronomical Twilight
Moon
Length of Visible Light
Length of Day
Tomorrow will be .
, % of the Moon is Illuminated

Today's Extremes

State Highs State Lows

Community

WunderPhotos

Category 6

Welcome to Category 6. This is the collective home for Weather Underground's featured writeups by Dr. Jeff Masters (right), Bob Henson (left), Chris Burt, and other regular contributors.

Nearby

Air Quality

  Air Quality AQ Index Pollutant
Not available.

Snow Depth

Station Depth Elevation

Earthquake Activity

City Distance Mag. Time & Date
Minimum magnitude displayed is 2.5.

Coastal Water Temperatures

Place Temperature

Stations

Nearby Weather Stations

Station Location Temp. Windchill Dew Point Humidity Wind Precip. Elev Updated Type
                   

Watches & Warnings

Fire Weather Watch
Issued: 2:35 PM CST Feb. 22, 2018 – National Weather Service

... Fire Weather Watch in effect from Saturday morning through
Saturday afternoon for strong winds and low relative humidity for
the southern Texas Panhandle... south and rolling plains...

The National Weather Service in Lubbock has issued a Fire Weather
Watch, which is in effect from Saturday morning through Saturday
afternoon.

* Wind... southwest at 25 to 35 mph with gusts to 50.

* Humidity... 5 to 10 percent.

* Fuels... critically dry.

* Impacts... any fires that develop can spread rapidly. Outdoor
burning is discouraged.

Precautionary/preparedness actions...

A Fire Weather Watch means that critical fire weather conditions
are forecast to occur. Monitor later forecasts and possible red
flag warnings.